sensor_id;sensor_type;location;lat;lon;timestamp;P1;durP1;ratioP1;P2;durP2;ratioP2
50745;SDS011;36711;51.972;21.204;2023-03-24T00:00:51;2.80;;;1.80;;
50745;SDS011;36711;51.972;21.204;2023-03-24T00:03:23;3.30;;;2.00;;
50745;SDS011;36711;51.972;21.204;2023-03-24T00:05:54;2.20;;;1.50;;
50745;SDS011;36711;51.972;21.204;2023-03-24T00:08:23;2.40;;;1.60;;
50745;SDS011;36711;51.972;21.204;2023-03-24T00:10:52;4.70;;;1.60;;
50745;SDS011;36711;51.972;21.204;2023-03-24T00:13:21;2.60;;;1.60;;
50745;SDS011;36711;51.972;21.204;2023-03-24T00:15:50;3.50;;;1.60;;
50745;SDS011;36711;51.972;21.204;2023-03-24T00:18:19;3.10;;;1.60;;
50745;SDS011;36711;51.972;21.204;2023-03-24T00:20:51;4.10;;;1.60;;
50745;SDS011;36711;51.972;21.204;2023-03-24T00:23:26;3.20;;;1.70;;
50745;SDS011;36711;51.972;21.204;2023-03-24T00:26:06;3.60;;;1.60;;
50745;SDS011;36711;51.972;21.204;2023-03-24T00:28:36;4.20;;;1.70;;
50745;SDS011;36711;51.972;21.204;2023-03-24T00:31:07;4.70;;;1.60;;
50745;SDS011;36711;51.972;21.204;2023-03-24T00:33:36;3.00;;;1.70;;
50745;SDS011;36711;51.972;21.204;2023-03-24T00:36:06;4.60;;;1.90;;
50745;SDS011;36711;51.972;21.204;2023-03-24T00:38:35;3.70;;;1.90;;
50745;SDS011;36711;51.972;21.204;2023-03-24T00:41:04;6.00;;;1.90;;
50745;SDS011;36711;51.972;21.204;2023-03-24T00:43:33;5.30;;;2.00;;
50745;SDS011;36711;51.972;21.204;2023-03-24T00:46:04;3.60;;;1.90;;
50745;SDS011;36711;51.972;21.204;2023-03-24T00:48:33;4.00;;;1.70;;
50745;SDS011;36711;51.972;21.204;2023-03-24T00:51:03;3.40;;;1.90;;
50745;SDS011;36711;51.972;21.204;2023-03-24T00:53:33;2.80;;;1.90;;
50745;SDS011;36711;51.972;21.204;2023-03-24T00:56:02;3.30;;;2.10;;
50745;SDS011;36711;51.972;21.204;2023-03-24T00:58:31;3.10;;;2.00;;
50745;SDS011;36711;51.972;21.204;2023-03-24T01:01:01;6.70;;;2.30;;
50745;SDS011;36711;51.972;21.204;2023-03-24T01:03:31;2.80;;;2.20;;
50745;SDS011;36711;51.972;21.204;2023-03-24T01:06:01;2.90;;;1.70;;
50745;SDS011;36711;51.972;21.204;2023-03-24T01:08:32;2.60;;;1.80;;
50745;SDS011;36711;51.972;21.204;2023-03-24T01:11:00;4.70;;;2.50;;
50745;SDS011;36711;51.972;21.204;2023-03-24T01:13:30;5.30;;;2.50;;
50745;SDS011;36711;51.972;21.204;2023-03-24T01:15:59;4.40;;;2.10;;
50745;SDS011;36711;51.972;21.204;2023-03-24T01:18:28;5.20;;;2.50;;
50745;SDS011;36711;51.972;21.204;2023-03-24T01:20:57;4.50;;;2.50;;
50745;SDS011;36711;51.972;21.204;2023-03-24T01:23:26;3.70;;;2.40;;
50745;SDS011;36711;51.972;21.204;2023-03-24T01:25:54;4.30;;;2.30;;
50745;SDS011;36711;51.972;21.204;2023-03-24T01:28:23;4.70;;;2.60;;
50745;SDS011;36711;51.972;21.204;2023-03-24T01:30:53;3.30;;;2.20;;
50745;SDS011;36711;51.972;21.204;2023-03-24T01:33:22;5.70;;;2.60;;
50745;SDS011;36711;51.972;21.204;2023-03-24T01:35:50;6.50;;;2.40;;
50745;SDS011;36711;51.972;21.204;2023-03-24T01:38:19;5.10;;;2.60;;
50745;SDS011;36711;51.972;21.204;2023-03-24T01:40:48;8.20;;;3.20;;
50745;SDS011;36711;51.972;21.204;2023-03-24T01:43:18;4.30;;;2.90;;
50745;SDS011;36711;51.972;21.204;2023-03-24T01:48:21;4.80;;;2.80;;
50745;SDS011;36711;51.972;21.204;2023-03-24T01:50:53;4.40;;;3.00;;
50745;SDS011;36711;51.972;21.204;2023-03-24T01:53:23;6.90;;;3.20;;
50745;SDS011;36711;51.972;21.204;2023-03-24T01:55:52;7.10;;;3.60;;
50745;SDS011;36711;51.972;21.204;2023-03-24T01:58:23;5.50;;;3.20;;
50745;SDS011;36711;51.972;21.204;2023-03-24T02:00:53;5.40;;;3.30;;
50745;SDS011;36711;51.972;21.204;2023-03-24T02:03:22;5.20;;;2.70;;
50745;SDS011;36711;51.972;21.204;2023-03-24T02:05:53;5.00;;;3.20;;
50745;SDS011;36711;51.972;21.204;2023-03-24T02:10:51;4.40;;;2.80;;
50745;SDS011;36711;51.972;21.204;2023-03-24T02:13:22;4.80;;;2.60;;
50745;SDS011;36711;51.972;21.204;2023-03-24T02:15:56;4.80;;;3.00;;
50745;SDS011;36711;51.972;21.204;2023-03-24T02:18:50;5.90;;;3.20;;
50745;SDS011;36711;51.972;21.204;2023-03-24T02:21:37;7.10;;;2.90;;
50745;SDS011;36711;51.972;21.204;2023-03-24T02:26:43;4.50;;;3.00;;
50745;SDS011;36711;51.972;21.204;2023-03-24T02:29:25;5.20;;;3.00;;
50745;SDS011;36711;51.972;21.204;2023-03-24T02:45:12;4.50;;;3.20;;
50745;SDS011;36711;51.972;21.204;2023-03-24T02:50:16;6.20;;;3.30;;
50745;SDS011;36711;51.972;21.204;2023-03-24T02:53:00;5.50;;;2.70;;
50745;SDS011;36711;51.972;21.204;2023-03-24T02:55:42;5.00;;;2.90;;
50745;SDS011;36711;51.972;21.204;2023-03-24T02:58:21;5.90;;;3.30;;
50745;SDS011;36711;51.972;21.204;2023-03-24T03:00:53;5.40;;;3.40;;
50745;SDS011;36711;51.972;21.204;2023-03-24T03:03:30;6.40;;;3.10;;
50745;SDS011;36711;51.972;21.204;2023-03-24T03:06:04;6.50;;;3.00;;
50745;SDS011;36711;51.972;21.204;2023-03-24T03:08:34;7.20;;;3.40;;
50745;SDS011;36711;51.972;21.204;2023-03-24T03:11:05;5.70;;;3.40;;
50745;SDS011;36711;51.972;21.204;2023-03-24T03:13:36;5.20;;;3.20;;
50745;SDS011;36711;51.972;21.204;2023-03-24T03:16:07;5.90;;;3.60;;
50745;SDS011;36711;51.972;21.204;2023-03-24T03:18:39;7.60;;;3.30;;
50745;SDS011;36711;51.972;21.204;2023-03-24T03:21:10;6.80;;;3.80;;
50745;SDS011;36711;51.972;21.204;2023-03-24T03:23:41;5.10;;;3.30;;
50745;SDS011;36711;51.972;21.204;2023-03-24T03:26:12;7.30;;;3.80;;
50745;SDS011;36711;51.972;21.204;2023-03-24T03:28:45;6.30;;;3.50;;
50745;SDS011;36711;51.972;21.204;2023-03-24T03:31:22;6.10;;;3.80;;
50745;SDS011;36711;51.972;21.204;2023-03-24T03:33:59;5.40;;;3.80;;
50745;SDS011;36711;51.972;21.204;2023-03-24T03:36:33;5.90;;;3.40;;
50745;SDS011;36711;51.972;21.204;2023-03-24T03:39:10;7.60;;;4.10;;
50745;SDS011;36711;51.972;21.204;2023-03-24T03:41:41;6.60;;;3.70;;
50745;SDS011;36711;51.972;21.204;2023-03-24T03:44:10;8.20;;;3.80;;
50745;SDS011;36711;51.972;21.204;2023-03-24T03:46:39;9.60;;;3.70;;
50745;SDS011;36711;51.972;21.204;2023-03-24T03:49:08;8.30;;;3.40;;
50745;SDS011;36711;51.972;21.204;2023-03-24T03:51:37;7.20;;;3.60;;
50745;SDS011;36711;51.972;21.204;2023-03-24T03:54:06;6.20;;;3.50;;
50745;SDS011;36711;51.972;21.204;2023-03-24T03:56:36;7.00;;;3.60;;
50745;SDS011;36711;51.972;21.204;2023-03-24T03:59:06;5.70;;;3.40;;
50745;SDS011;36711;51.972;21.204;2023-03-24T04:01:35;6.60;;;4.10;;
50745;SDS011;36711;51.972;21.204;2023-03-24T04:04:09;8.90;;;4.10;;
50745;SDS011;36711;51.972;21.204;2023-03-24T04:06:58;6.80;;;3.60;;
50745;SDS011;36711;51.972;21.204;2023-03-24T04:09:34;8.40;;;4.00;;
50745;SDS011;36711;51.972;21.204;2023-03-24T04:28:20;7.10;;;3.90;;
50745;SDS011;36711;51.972;21.204;2023-03-24T04:31:05;6.40;;;4.10;;
50745;SDS011;36711;51.972;21.204;2023-03-24T04:33:46;7.70;;;3.60;;
50745;SDS011;36711;51.972;21.204;2023-03-24T04:36:19;10.50;;;4.40;;
50745;SDS011;36711;51.972;21.204;2023-03-24T04:38:50;10.70;;;4.20;;
50745;SDS011;36711;51.972;21.204;2023-03-24T04:41:27;9.30;;;4.20;;
50745;SDS011;36711;51.972;21.204;2023-03-24T04:44:03;5.50;;;3.60;;
50745;SDS011;36711;51.972;21.204;2023-03-24T04:46:53;9.10;;;4.10;;
50745;SDS011;36711;51.972;21.204;2023-03-24T04:49:24;7.40;;;3.80;;
50745;SDS011;36711;51.972;21.204;2023-03-24T04:51:53;7.30;;;3.50;;
50745;SDS011;36711;51.972;21.204;2023-03-24T04:54:22;7.10;;;3.90;;
50745;SDS011;36711;51.972;21.204;2023-03-24T04:56:54;8.20;;;3.90;;
50745;SDS011;36711;51.972;21.204;2023-03-24T04:59:24;10.80;;;3.90;;
50745;SDS011;36711;51.972;21.204;2023-03-24T05:01:53;7.50;;;3.60;;
50745;SDS011;36711;51.972;21.204;2023-03-24T05:04:23;7.90;;;3.60;;
50745;SDS011;36711;51.972;21.204;2023-03-24T05:06:52;6.00;;;3.80;;
50745;SDS011;36711;51.972;21.204;2023-03-24T05:09:22;6.60;;;3.80;;
50745;SDS011;36711;51.972;21.204;2023-03-24T05:11:51;8.20;;;4.00;;
50745;SDS011;36711;51.972;21.204;2023-03-24T05:14:20;6.60;;;3.70;;
50745;SDS011;36711;51.972;21.204;2023-03-24T05:16:49;7.60;;;4.10;;
50745;SDS011;36711;51.972;21.204;2023-03-24T05:19:18;9.40;;;4.60;;
50745;SDS011;36711;51.972;21.204;2023-03-24T05:21:47;8.40;;;4.40;;
50745;SDS011;36711;51.972;21.204;2023-03-24T05:24:16;9.10;;;3.80;;
50745;SDS011;36711;51.972;21.204;2023-03-24T05:26:45;7.50;;;3.90;;
50745;SDS011;36711;51.972;21.204;2023-03-24T05:29:13;10.20;;;3.70;;
50745;SDS011;36711;51.972;21.204;2023-03-24T05:31:42;9.50;;;4.30;;
50745;SDS011;36711;51.972;21.204;2023-03-24T05:34:13;7.50;;;4.00;;
50745;SDS011;36711;51.972;21.204;2023-03-24T05:36:41;8.90;;;4.60;;
50745;SDS011;36711;51.972;21.204;2023-03-24T05:39:10;9.20;;;4.60;;
50745;SDS011;36711;51.972;21.204;2023-03-24T05:41:39;9.80;;;5.60;;
50745;SDS011;36711;51.972;21.204;2023-03-24T05:44:07;10.60;;;4.50;;
50745;SDS011;36711;51.972;21.204;2023-03-24T05:46:36;7.20;;;4.60;;
50745;SDS011;36711;51.972;21.204;2023-03-24T05:49:05;9.90;;;4.30;;
50745;SDS011;36711;51.972;21.204;2023-03-24T05:51:34;8.80;;;4.60;;
50745;SDS011;36711;51.972;21.204;2023-03-24T05:54:03;8.30;;;4.10;;
50745;SDS011;36711;51.972;21.204;2023-03-24T05:56:33;9.40;;;4.60;;
50745;SDS011;36711;51.972;21.204;2023-03-24T05:59:02;8.60;;;3.60;;
50745;SDS011;36711;51.972;21.204;2023-03-24T06:01:31;8.10;;;4.10;;
50745;SDS011;36711;51.972;21.204;2023-03-24T06:04:00;7.00;;;3.60;;
50745;SDS011;36711;51.972;21.204;2023-03-24T06:06:29;11.10;;;4.40;;
50745;SDS011;36711;51.972;21.204;2023-03-24T06:08:58;7.30;;;4.00;;
50745;SDS011;36711;51.972;21.204;2023-03-24T06:11:30;7.20;;;4.40;;
50745;SDS011;36711;51.972;21.204;2023-03-24T06:13:58;7.60;;;4.60;;
50745;SDS011;36711;51.972;21.204;2023-03-24T06:16:28;11.10;;;4.50;;
50745;SDS011;36711;51.972;21.204;2023-03-24T06:18:56;9.10;;;3.90;;
50745;SDS011;36711;51.972;21.204;2023-03-24T06:21:25;7.10;;;4.00;;
50745;SDS011;36711;51.972;21.204;2023-03-24T06:24:02;9.10;;;3.90;;
50745;SDS011;36711;51.972;21.204;2023-03-24T06:26:31;6.50;;;3.90;;
50745;SDS011;36711;51.972;21.204;2023-03-24T06:29:00;6.90;;;3.80;;
50745;SDS011;36711;51.972;21.204;2023-03-24T06:31:29;5.70;;;4.00;;
50745;SDS011;36711;51.972;21.204;2023-03-24T06:34:00;6.50;;;4.10;;
50745;SDS011;36711;51.972;21.204;2023-03-24T06:36:29;6.30;;;3.70;;
50745;SDS011;36711;51.972;21.204;2023-03-24T06:38:58;8.20;;;4.30;;
50745;SDS011;36711;51.972;21.204;2023-03-24T06:41:27;9.50;;;4.20;;
50745;SDS011;36711;51.972;21.204;2023-03-24T06:43:56;8.60;;;4.20;;
50745;SDS011;36711;51.972;21.204;2023-03-24T06:46:25;9.50;;;4.50;;
50745;SDS011;36711;51.972;21.204;2023-03-24T06:48:54;8.80;;;4.10;;
50745;SDS011;36711;51.972;21.204;2023-03-24T06:51:23;7.10;;;4.80;;
50745;SDS011;36711;51.972;21.204;2023-03-24T06:53:51;7.00;;;4.30;;
50745;SDS011;36711;51.972;21.204;2023-03-24T06:56:20;7.80;;;4.20;;
50745;SDS011;36711;51.972;21.204;2023-03-24T06:58:49;7.10;;;4.30;;
50745;SDS011;36711;51.972;21.204;2023-03-24T07:01:19;6.10;;;4.30;;
50745;SDS011;36711;51.972;21.204;2023-03-24T07:03:48;9.90;;;4.10;;
50745;SDS011;36711;51.972;21.204;2023-03-24T07:06:17;8.70;;;4.10;;
50745;SDS011;36711;51.972;21.204;2023-03-24T07:08:46;7.10;;;4.20;;
50745;SDS011;36711;51.972;21.204;2023-03-24T07:11:14;9.10;;;3.80;;
50745;SDS011;36711;51.972;21.204;2023-03-24T07:13:44;7.60;;;3.80;;
50745;SDS011;36711;51.972;21.204;2023-03-24T07:16:13;9.10;;;3.70;;
50745;SDS011;36711;51.972;21.204;2023-03-24T07:18:41;6.90;;;3.60;;
50745;SDS011;36711;51.972;21.204;2023-03-24T07:21:10;8.10;;;4.20;;
50745;SDS011;36711;51.972;21.204;2023-03-24T07:23:39;7.20;;;4.20;;
50745;SDS011;36711;51.972;21.204;2023-03-24T07:26:08;10.40;;;4.70;;
50745;SDS011;36711;51.972;21.204;2023-03-24T07:28:36;7.40;;;4.10;;
50745;SDS011;36711;51.972;21.204;2023-03-24T07:31:05;9.00;;;4.90;;
50745;SDS011;36711;51.972;21.204;2023-03-24T07:33:38;8.20;;;4.40;;
50745;SDS011;36711;51.972;21.204;2023-03-24T07:36:07;14.00;;;4.80;;
50745;SDS011;36711;51.972;21.204;2023-03-24T07:38:36;9.80;;;4.60;;
50745;SDS011;36711;51.972;21.204;2023-03-24T07:41:05;7.00;;;4.00;;
50745;SDS011;36711;51.972;21.204;2023-03-24T07:43:34;6.70;;;4.30;;
50745;SDS011;36711;51.972;21.204;2023-03-24T07:46:03;8.50;;;4.30;;
50745;SDS011;36711;51.972;21.204;2023-03-24T07:48:31;6.50;;;4.20;;
50745;SDS011;36711;51.972;21.204;2023-03-24T07:51:00;6.60;;;4.10;;
50745;SDS011;36711;51.972;21.204;2023-03-24T07:53:29;8.30;;;3.80;;
50745;SDS011;36711;51.972;21.204;2023-03-24T07:55:58;7.20;;;3.90;;
50745;SDS011;36711;51.972;21.204;2023-03-24T07:58:27;7.90;;;4.20;;
50745;SDS011;36711;51.972;21.204;2023-03-24T08:00:55;12.60;;;4.20;;
50745;SDS011;36711;51.972;21.204;2023-03-24T08:03:24;7.10;;;4.40;;
50745;SDS011;36711;51.972;21.204;2023-03-24T08:05:56;6.10;;;3.60;;
50745;SDS011;36711;51.972;21.204;2023-03-24T08:08:25;9.00;;;4.40;;
50745;SDS011;36711;51.972;21.204;2023-03-24T08:10:54;9.00;;;4.40;;
50745;SDS011;36711;51.972;21.204;2023-03-24T08:13:22;7.00;;;4.00;;
50745;SDS011;36711;51.972;21.204;2023-03-24T08:15:51;6.70;;;4.00;;
50745;SDS011;36711;51.972;21.204;2023-03-24T08:18:21;5.90;;;3.50;;
50745;SDS011;36711;51.972;21.204;2023-03-24T08:20:53;7.80;;;4.30;;
50745;SDS011;36711;51.972;21.204;2023-03-24T08:23:23;6.90;;;3.90;;
50745;SDS011;36711;51.972;21.204;2023-03-24T08:25:52;6.60;;;3.70;;
50745;SDS011;36711;51.972;21.204;2023-03-24T08:28:22;7.10;;;3.30;;
50745;SDS011;36711;51.972;21.204;2023-03-24T08:30:51;7.30;;;3.40;;
50745;SDS011;36711;51.972;21.204;2023-03-24T08:33:21;7.10;;;3.50;;
50745;SDS011;36711;51.972;21.204;2023-03-24T08:35:50;6.60;;;3.30;;
50745;SDS011;36711;51.972;21.204;2023-03-24T08:38:20;8.40;;;3.60;;
50745;SDS011;36711;51.972;21.204;2023-03-24T08:40:50;6.00;;;2.90;;
50745;SDS011;36711;51.972;21.204;2023-03-24T08:43:19;6.20;;;3.20;;
50745;SDS011;36711;51.972;21.204;2023-03-24T08:45:50;4.70;;;3.00;;
50745;SDS011;36711;51.972;21.204;2023-03-24T08:48:19;5.30;;;2.90;;
50745;SDS011;36711;51.972;21.204;2023-03-24T08:50:49;4.70;;;3.00;;
50745;SDS011;36711;51.972;21.204;2023-03-24T08:53:18;6.40;;;3.40;;
50745;SDS011;36711;51.972;21.204;2023-03-24T08:55:46;5.70;;;3.40;;
50745;SDS011;36711;51.972;21.204;2023-03-24T08:58:16;4.40;;;3.10;;
50745;SDS011;36711;51.972;21.204;2023-03-24T09:00:46;7.00;;;3.50;;
50745;SDS011;36711;51.972;21.204;2023-03-24T09:03:16;8.30;;;3.70;;
50745;SDS011;36711;51.972;21.204;2023-03-24T09:05:46;6.80;;;3.70;;
50745;SDS011;36711;51.972;21.204;2023-03-24T09:08:16;6.90;;;3.90;;
50745;SDS011;36711;51.972;21.204;2023-03-24T09:10:45;6.20;;;3.30;;
50745;SDS011;36711;51.972;21.204;2023-03-24T09:13:14;8.10;;;3.70;;
50745;SDS011;36711;51.972;21.204;2023-03-24T09:15:51;4.80;;;3.10;;
50745;SDS011;36711;51.972;21.204;2023-03-24T09:18:20;7.50;;;3.80;;
50745;SDS011;36711;51.972;21.204;2023-03-24T09:20:49;6.30;;;3.40;;
50745;SDS011;36711;51.972;21.204;2023-03-24T09:23:19;5.90;;;3.20;;
50745;SDS011;36711;51.972;21.204;2023-03-24T09:25:49;6.30;;;3.50;;
50745;SDS011;36711;51.972;21.204;2023-03-24T09:28:19;5.50;;;3.30;;
50745;SDS011;36711;51.972;21.204;2023-03-24T09:30:47;9.60;;;3.30;;
50745;SDS011;36711;51.972;21.204;2023-03-24T09:33:17;5.70;;;3.30;;
50745;SDS011;36711;51.972;21.204;2023-03-24T09:35:52;4.80;;;3.20;;
50745;SDS011;36711;51.972;21.204;2023-03-24T09:38:20;3.70;;;2.70;;
50745;SDS011;36711;51.972;21.204;2023-03-24T09:40:56;3.90;;;2.90;;
50745;SDS011;36711;51.972;21.204;2023-03-24T09:43:30;4.80;;;2.80;;
50745;SDS011;36711;51.972;21.204;2023-03-24T09:46:00;4.00;;;2.40;;
50745;SDS011;36711;51.972;21.204;2023-03-24T09:51:24;4.20;;;2.30;;
50745;SDS011;36711;51.972;21.204;2023-03-24T09:53:54;3.40;;;2.20;;
50745;SDS011;36711;51.972;21.204;2023-03-24T09:56:24;4.30;;;2.50;;
50745;SDS011;36711;51.972;21.204;2023-03-24T10:01:28;2.80;;;2.10;;
50745;SDS011;36711;51.972;21.204;2023-03-24T10:03:58;3.80;;;2.40;;
50745;SDS011;36711;51.972;21.204;2023-03-24T10:06:29;2.80;;;2.10;;
50745;SDS011;36711;51.972;21.204;2023-03-24T10:09:05;4.20;;;2.10;;
50745;SDS011;36711;51.972;21.204;2023-03-24T10:11:38;3.70;;;2.20;;
50745;SDS011;36711;51.972;21.204;2023-03-24T10:14:54;3.70;;;2.40;;
50745;SDS011;36711;51.972;21.204;2023-03-24T10:17:04;4.10;;;2.70;;
50745;SDS011;36711;51.972;21.204;2023-03-24T10:24:49;3.60;;;2.60;;
50745;SDS011;36711;51.972;21.204;2023-03-24T10:27:36;2.80;;;2.20;;
50745;SDS011;36711;51.972;21.204;2023-03-24T10:30:13;5.30;;;2.70;;
50745;SDS011;36711;51.972;21.204;2023-03-24T10:32:43;5.70;;;2.70;;
50745;SDS011;36711;51.972;21.204;2023-03-24T10:35:14;6.30;;;3.10;;
50745;SDS011;36711;51.972;21.204;2023-03-24T10:37:43;4.50;;;3.10;;
50745;SDS011;36711;51.972;21.204;2023-03-24T10:40:13;5.50;;;2.90;;
50745;SDS011;36711;51.972;21.204;2023-03-24T10:42:44;6.00;;;3.00;;
50745;SDS011;36711;51.972;21.204;2023-03-24T10:45:19;4.70;;;3.30;;
50745;SDS011;36711;51.972;21.204;2023-03-24T10:47:52;4.40;;;2.90;;
50745;SDS011;36711;51.972;21.204;2023-03-24T10:50:29;5.50;;;3.10;;
50745;SDS011;36711;51.972;21.204;2023-03-24T10:52:58;5.80;;;3.00;;
50745;SDS011;36711;51.972;21.204;2023-03-24T10:55:30;7.20;;;3.50;;
50745;SDS011;36711;51.972;21.204;2023-03-24T10:57:59;6.00;;;3.00;;
50745;SDS011;36711;51.972;21.204;2023-03-24T11:00:29;7.00;;;3.40;;
50745;SDS011;36711;51.972;21.204;2023-03-24T11:03:00;5.10;;;3.40;;
50745;SDS011;36711;51.972;21.204;2023-03-24T11:05:31;6.00;;;3.30;;
50745;SDS011;36711;51.972;21.204;2023-03-24T11:08:24;7.90;;;3.30;;
50745;SDS011;36711;51.972;21.204;2023-03-24T11:10:50;5.80;;;3.10;;
50745;SDS011;36711;51.972;21.204;2023-03-24T11:13:25;4.80;;;3.00;;
50745;SDS011;36711;51.972;21.204;2023-03-24T11:15:55;6.40;;;3.10;;
50745;SDS011;36711;51.972;21.204;2023-03-24T11:18:25;4.70;;;3.20;;
50745;SDS011;36711;51.972;21.204;2023-03-24T11:20:56;5.60;;;3.30;;
50745;SDS011;36711;51.972;21.204;2023-03-24T11:23:27;5.90;;;3.10;;
50745;SDS011;36711;51.972;21.204;2023-03-24T11:26:43;6.10;;;3.10;;
50745;SDS011;36711;51.972;21.204;2023-03-24T11:28:53;5.50;;;3.40;;
50745;SDS011;36711;51.972;21.204;2023-03-24T11:31:24;5.20;;;3.10;;
50745;SDS011;36711;51.972;21.204;2023-03-24T11:33:55;4.70;;;3.00;;
50745;SDS011;36711;51.972;21.204;2023-03-24T11:39:17;8.70;;;2.80;;
50745;SDS011;36711;51.972;21.204;2023-03-24T11:42:00;4.70;;;2.70;;
50745;SDS011;36711;51.972;21.204;2023-03-24T11:44:31;5.30;;;2.60;;
50745;SDS011;36711;51.972;21.204;2023-03-24T11:47:11;6.80;;;2.80;;
50745;SDS011;36711;51.972;21.204;2023-03-24T11:49:42;4.90;;;2.50;;
50745;SDS011;36711;51.972;21.204;2023-03-24T11:52:35;3.60;;;2.10;;
50745;SDS011;36711;51.972;21.204;2023-03-24T11:55:02;3.60;;;2.50;;
50745;SDS011;36711;51.972;21.204;2023-03-24T12:00:39;4.20;;;2.30;;
50745;SDS011;36711;51.972;21.204;2023-03-24T12:05:39;4.10;;;2.50;;
50745;SDS011;36711;51.972;21.204;2023-03-24T12:08:12;4.30;;;2.50;;
50745;SDS011;36711;51.972;21.204;2023-03-24T12:13:29;3.80;;;2.50;;
50745;SDS011;36711;51.972;21.204;2023-03-24T12:16:05;4.40;;;2.50;;
50745;SDS011;36711;51.972;21.204;2023-03-24T12:24:13;7.20;;;2.20;;
50745;SDS011;36711;51.972;21.204;2023-03-24T12:26:46;3.60;;;2.10;;
50745;SDS011;36711;51.972;21.204;2023-03-24T12:29:21;3.10;;;2.00;;
50745;SDS011;36711;51.972;21.204;2023-03-24T12:39:30;1.80;;;1.70;;
50745;SDS011;36711;51.972;21.204;2023-03-24T12:47:11;2.30;;;1.50;;
50745;SDS011;36711;51.972;21.204;2023-03-24T12:55:39;3.70;;;1.40;;
50745;SDS011;36711;51.972;21.204;2023-03-24T13:01:02;3.10;;;1.50;;
50745;SDS011;36711;51.972;21.204;2023-03-24T13:06:08;1.30;;;1.20;;
50745;SDS011;36711;51.972;21.204;2023-03-24T13:08:48;2.80;;;1.40;;
50745;SDS011;36711;51.972;21.204;2023-03-24T13:11:19;1.60;;;1.30;;
50745;SDS011;36711;51.972;21.204;2023-03-24T13:14:02;1.40;;;1.30;;
50745;SDS011;36711;51.972;21.204;2023-03-24T13:16:33;3.80;;;1.30;;
50745;SDS011;36711;51.972;21.204;2023-03-24T13:19:03;4.50;;;1.30;;
50745;SDS011;36711;51.972;21.204;2023-03-24T13:21:35;2.00;;;1.10;;
50745;SDS011;36711;51.972;21.204;2023-03-24T13:24:06;2.00;;;1.10;;
50745;SDS011;36711;51.972;21.204;2023-03-24T13:26:40;1.30;;;1.10;;
50745;SDS011;36711;51.972;21.204;2023-03-24T13:31:43;3.80;;;1.20;;
50745;SDS011;36711;51.972;21.204;2023-03-24T13:34:24;1.20;;;0.90;;
50745;SDS011;36711;51.972;21.204;2023-03-24T13:37:04;1.40;;;1.20;;
50745;SDS011;36711;51.972;21.204;2023-03-24T13:39:34;1.60;;;1.10;;
50745;SDS011;36711;51.972;21.204;2023-03-24T13:42:04;5.50;;;1.20;;
50745;SDS011;36711;51.972;21.204;2023-03-24T13:44:40;1.40;;;0.90;;
50745;SDS011;36711;51.972;21.204;2023-03-24T13:47:15;2.60;;;0.90;;
50745;SDS011;36711;51.972;21.204;2023-03-24T13:52:25;1.40;;;1.10;;
50745;SDS011;36711;51.972;21.204;2023-03-24T13:54:56;1.60;;;1.20;;
50745;SDS011;36711;51.972;21.204;2023-03-24T13:57:26;2.50;;;1.30;;
50745;SDS011;36711;51.972;21.204;2023-03-24T13:59:57;3.20;;;1.10;;
50745;SDS011;36711;51.972;21.204;2023-03-24T14:07:32;3.60;;;1.30;;
50745;SDS011;36711;51.972;21.204;2023-03-24T14:10:02;2.50;;;1.20;;
50745;SDS011;36711;51.972;21.204;2023-03-24T14:15:26;1.60;;;1.30;;
50745;SDS011;36711;51.972;21.204;2023-03-24T14:18:12;2.60;;;1.40;;
50745;SDS011;36711;51.972;21.204;2023-03-24T14:20:43;4.40;;;1.30;;
50745;SDS011;36711;51.972;21.204;2023-03-24T14:23:36;3.00;;;1.40;;
50745;SDS011;36711;51.972;21.204;2023-03-24T14:26:14;3.00;;;1.40;;
50745;SDS011;36711;51.972;21.204;2023-03-24T14:28:54;2.30;;;1.30;;
50745;SDS011;36711;51.972;21.204;2023-03-24T14:31:33;2.50;;;1.30;;
50745;SDS011;36711;51.972;21.204;2023-03-24T14:34:08;2.50;;;1.30;;
50745;SDS011;36711;51.972;21.204;2023-03-24T14:36:42;1.90;;;1.20;;
50745;SDS011;36711;51.972;21.204;2023-03-24T14:39:31;1.80;;;1.50;;
50745;SDS011;36711;51.972;21.204;2023-03-24T14:42:00;1.80;;;1.30;;
50745;SDS011;36711;51.972;21.204;2023-03-24T14:47:23;4.20;;;1.40;;
50745;SDS011;36711;51.972;21.204;2023-03-24T14:49:57;2.40;;;1.40;;
50745;SDS011;36711;51.972;21.204;2023-03-24T14:52:30;3.70;;;1.50;;
50745;SDS011;36711;51.972;21.204;2023-03-24T14:57:41;3.80;;;1.50;;
50745;SDS011;36711;51.972;21.204;2023-03-24T15:03:00;2.60;;;1.40;;
50745;SDS011;36711;51.972;21.204;2023-03-24T15:05:29;2.10;;;1.20;;
50745;SDS011;36711;51.972;21.204;2023-03-24T15:08:00;2.70;;;1.40;;
50745;SDS011;36711;51.972;21.204;2023-03-24T15:10:32;1.70;;;1.30;;
50745;SDS011;36711;51.972;21.204;2023-03-24T15:13:03;2.40;;;1.40;;
50745;SDS011;36711;51.972;21.204;2023-03-24T15:15:32;1.80;;;1.30;;
50745;SDS011;36711;51.972;21.204;2023-03-24T15:18:00;3.40;;;1.50;;
50745;SDS011;36711;51.972;21.204;2023-03-24T15:20:32;2.60;;;1.50;;
50745;SDS011;36711;51.972;21.204;2023-03-24T15:23:10;2.20;;;1.60;;
50745;SDS011;36711;51.972;21.204;2023-03-24T15:25:44;2.80;;;1.70;;
50745;SDS011;36711;51.972;21.204;2023-03-24T15:28:18;2.70;;;1.40;;
50745;SDS011;36711;51.972;21.204;2023-03-24T15:30:47;2.20;;;1.40;;
50745;SDS011;36711;51.972;21.204;2023-03-24T15:33:17;1.60;;;1.40;;
50745;SDS011;36711;51.972;21.204;2023-03-24T15:35:52;2.00;;;1.30;;
50745;SDS011;36711;51.972;21.204;2023-03-24T15:38:28;1.20;;;1.10;;
50745;SDS011;36711;51.972;21.204;2023-03-24T15:43:29;1.60;;;1.50;;
50745;SDS011;36711;51.972;21.204;2023-03-24T15:45:58;4.20;;;1.60;;
50745;SDS011;36711;51.972;21.204;2023-03-24T15:48:39;2.30;;;1.60;;
50745;SDS011;36711;51.972;21.204;2023-03-24T15:51:08;2.70;;;1.50;;
50745;SDS011;36711;51.972;21.204;2023-03-24T15:53:46;3.10;;;1.80;;
50745;SDS011;36711;51.972;21.204;2023-03-24T15:56:19;5.40;;;1.90;;
50745;SDS011;36711;51.972;21.204;2023-03-24T15:58:49;2.80;;;2.10;;
50745;SDS011;36711;51.972;21.204;2023-03-24T16:01:28;3.90;;;1.80;;
50745;SDS011;36711;51.972;21.204;2023-03-24T16:04:10;3.40;;;1.60;;
50745;SDS011;36711;51.972;21.204;2023-03-24T16:06:41;7.50;;;1.90;;
50745;SDS011;36711;51.972;21.204;2023-03-24T16:09:12;2.10;;;1.70;;
50745;SDS011;36711;51.972;21.204;2023-03-24T16:11:41;3.10;;;1.80;;
50745;SDS011;36711;51.972;21.204;2023-03-24T16:16:41;6.20;;;2.10;;
50745;SDS011;36711;51.972;21.204;2023-03-24T16:19:11;2.90;;;2.10;;
50745;SDS011;36711;51.972;21.204;2023-03-24T16:21:40;2.90;;;1.90;;
50745;SDS011;36711;51.972;21.204;2023-03-24T16:24:09;2.90;;;2.10;;
50745;SDS011;36711;51.972;21.204;2023-03-24T16:26:38;2.80;;;2.10;;
50745;SDS011;36711;51.972;21.204;2023-03-24T16:31:43;4.30;;;2.00;;
50745;SDS011;36711;51.972;21.204;2023-03-24T16:34:12;2.70;;;1.80;;
50745;SDS011;36711;51.972;21.204;2023-03-24T16:36:41;3.10;;;1.90;;
50745;SDS011;36711;51.972;21.204;2023-03-24T16:39:12;2.50;;;1.70;;
50745;SDS011;36711;51.972;21.204;2023-03-24T16:41:43;4.00;;;1.80;;
50745;SDS011;36711;51.972;21.204;2023-03-24T16:44:13;2.50;;;1.50;;
50745;SDS011;36711;51.972;21.204;2023-03-24T16:46:42;5.30;;;1.80;;
50745;SDS011;36711;51.972;21.204;2023-03-24T16:49:14;2.80;;;1.90;;
50745;SDS011;36711;51.972;21.204;2023-03-24T16:51:44;2.60;;;2.00;;
50745;SDS011;36711;51.972;21.204;2023-03-24T16:54:13;2.50;;;1.80;;
50745;SDS011;36711;51.972;21.204;2023-03-24T16:56:42;2.20;;;1.80;;
50745;SDS011;36711;51.972;21.204;2023-03-24T16:59:11;2.80;;;2.00;;